sensor_id;sensor_type;location;lat;lon;timestamp;P1;durP1;ratioP1;P2;durP2;ratioP2
26036;SDS011;13810;48.376;10.944;2023-08-21T00:00:18;7.47;;;4.88;;
26036;SDS011;13810;48.376;10.944;2023-08-21T00:00:49;6.32;;;4.90;;
26036;SDS011;13810;48.376;10.944;2023-08-21T00:01:19;8.65;;;5.70;;
26036;SDS011;13810;48.376;10.944;2023-08-21T00:01:50;8.85;;;5.70;;
26036;SDS011;13810;48.376;10.944;2023-08-21T00:02:21;7.75;;;5.15;;
26036;SDS011;13810;48.376;10.944;2023-08-21T00:02:51;7.43;;;5.18;;
26036;SDS011;13810;48.376;10.944;2023-08-21T00:03:22;7.95;;;5.40;;
26036;SDS011;13810;48.376;10.944;2023-08-21T00:03:53;8.43;;;4.93;;
26036;SDS011;13810;48.376;10.944;2023-08-21T00:04:23;6.07;;;4.65;;
26036;SDS011;13810;48.376;10.944;2023-08-21T00:04:54;8.00;;;5.30;;
26036;SDS011;13810;48.376;10.944;2023-08-21T00:05:25;7.55;;;5.45;;
26036;SDS011;13810;48.376;10.944;2023-08-21T00:05:55;7.63;;;5.85;;
26036;SDS011;13810;48.376;10.944;2023-08-21T00:06:26;6.18;;;4.97;;
26036;SDS011;13810;48.376;10.944;2023-08-21T00:06:56;6.28;;;4.78;;
26036;SDS011;13810;48.376;10.944;2023-08-21T00:07:27;5.60;;;4.70;;
26036;SDS011;13810;48.376;10.944;2023-08-21T00:07:58;6.43;;;4.30;;
26036;SDS011;13810;48.376;10.944;2023-08-21T00:08:28;7.38;;;5.50;;
26036;SDS011;13810;48.376;10.944;2023-08-21T00:09:00;6.82;;;4.93;;
26036;SDS011;13810;48.376;10.944;2023-08-21T00:09:32;9.43;;;5.55;;
26036;SDS011;13810;48.376;10.944;2023-08-21T00:10:02;8.07;;;5.53;;
26036;SDS011;13810;48.376;10.944;2023-08-21T00:10:36;8.05;;;5.25;;
26036;SDS011;13810;48.376;10.944;2023-08-21T00:11:07;9.32;;;5.38;;
26036;SDS011;13810;48.376;10.944;2023-08-21T00:11:38;11.00;;;4.85;;
26036;SDS011;13810;48.376;10.944;2023-08-21T00:12:08;8.18;;;4.65;;
26036;SDS011;13810;48.376;10.944;2023-08-21T00:12:39;8.32;;;5.15;;
26036;SDS011;13810;48.376;10.944;2023-08-21T00:13:10;10.70;;;5.55;;
26036;SDS011;13810;48.376;10.944;2023-08-21T00:13:40;7.82;;;5.43;;
26036;SDS011;13810;48.376;10.944;2023-08-21T00:14:14;7.20;;;5.50;;
26036;SDS011;13810;48.376;10.944;2023-08-21T00:14:45;10.68;;;5.30;;
26036;SDS011;13810;48.376;10.944;2023-08-21T00:15:15;8.00;;;5.47;;
26036;SDS011;13810;48.376;10.944;2023-08-21T00:15:46;7.40;;;5.43;;
26036;SDS011;13810;48.376;10.944;2023-08-21T00:16:17;7.40;;;5.30;;
26036;SDS011;13810;48.376;10.944;2023-08-21T00:16:48;8.23;;;5.65;;
26036;SDS011;13810;48.376;10.944;2023-08-21T00:17:18;6.90;;;4.70;;
26036;SDS011;13810;48.376;10.944;2023-08-21T00:17:49;8.05;;;5.68;;
26036;SDS011;13810;48.376;10.944;2023-08-21T00:18:20;7.60;;;5.35;;
26036;SDS011;13810;48.376;10.944;2023-08-21T00:18:52;8.00;;;5.38;;
26036;SDS011;13810;48.376;10.944;2023-08-21T00:19:23;7.45;;;5.03;;
26036;SDS011;13810;48.376;10.944;2023-08-21T00:19:53;7.13;;;5.03;;
26036;SDS011;13810;48.376;10.944;2023-08-21T00:20:24;6.90;;;5.50;;
26036;SDS011;13810;48.376;10.944;2023-08-21T00:20:55;7.03;;;4.97;;
26036;SDS011;13810;48.376;10.944;2023-08-21T00:21:25;8.68;;;5.15;;
26036;SDS011;13810;48.376;10.944;2023-08-21T00:21:56;9.10;;;5.07;;
26036;SDS011;13810;48.376;10.944;2023-08-21T00:22:27;6.43;;;4.95;;
26036;SDS011;13810;48.376;10.944;2023-08-21T00:22:57;9.95;;;5.60;;
26036;SDS011;13810;48.376;10.944;2023-08-21T00:23:28;6.03;;;5.00;;
26036;SDS011;13810;48.376;10.944;2023-08-21T00:23:59;9.57;;;5.80;;
26036;SDS011;13810;48.376;10.944;2023-08-21T00:24:29;6.53;;;5.50;;
26036;SDS011;13810;48.376;10.944;2023-08-21T00:25:00;6.18;;;4.72;;
26036;SDS011;13810;48.376;10.944;2023-08-21T00:25:31;8.40;;;5.25;;
26036;SDS011;13810;48.376;10.944;2023-08-21T00:26:01;5.28;;;4.32;;
26036;SDS011;13810;48.376;10.944;2023-08-21T00:26:32;7.38;;;5.15;;
26036;SDS011;13810;48.376;10.944;2023-08-21T00:27:03;12.38;;;5.45;;
26036;SDS011;13810;48.376;10.944;2023-08-21T00:27:33;6.70;;;5.05;;
26036;SDS011;13810;48.376;10.944;2023-08-21T00:28:04;8.43;;;5.38;;
26036;SDS011;13810;48.376;10.944;2023-08-21T00:28:35;8.85;;;5.35;;
26036;SDS011;13810;48.376;10.944;2023-08-21T00:29:06;7.82;;;5.05;;
26036;SDS011;13810;48.376;10.944;2023-08-21T00:29:36;10.57;;;5.25;;
26036;SDS011;13810;48.376;10.944;2023-08-21T00:30:07;6.45;;;4.82;;
26036;SDS011;13810;48.376;10.944;2023-08-21T00:30:38;8.48;;;5.57;;
26036;SDS011;13810;48.376;10.944;2023-08-21T00:31:09;9.02;;;5.60;;
26036;SDS011;13810;48.376;10.944;2023-08-21T00:31:40;10.35;;;5.65;;
26036;SDS011;13810;48.376;10.944;2023-08-21T00:32:10;6.93;;;5.15;;
26036;SDS011;13810;48.376;10.944;2023-08-21T00:32:42;8.43;;;5.47;;
26036;SDS011;13810;48.376;10.944;2023-08-21T00:33:13;10.23;;;5.32;;
26036;SDS011;13810;48.376;10.944;2023-08-21T00:33:43;6.65;;;5.43;;
26036;SDS011;13810;48.376;10.944;2023-08-21T00:34:14;8.43;;;5.15;;
26036;SDS011;13810;48.376;10.944;2023-08-21T00:34:45;9.07;;;5.55;;
26036;SDS011;13810;48.376;10.944;2023-08-21T00:35:15;7.40;;;5.30;;
26036;SDS011;13810;48.376;10.944;2023-08-21T00:35:46;9.07;;;5.82;;
26036;SDS011;13810;48.376;10.944;2023-08-21T00:36:17;8.50;;;4.90;;
26036;SDS011;13810;48.376;10.944;2023-08-21T00:36:49;7.53;;;5.68;;
26036;SDS011;13810;48.376;10.944;2023-08-21T00:37:20;7.40;;;5.47;;
26036;SDS011;13810;48.376;10.944;2023-08-21T00:37:51;8.30;;;5.47;;
26036;SDS011;13810;48.376;10.944;2023-08-21T00:38:21;10.02;;;5.82;;
26036;SDS011;13810;48.376;10.944;2023-08-21T00:38:53;8.57;;;5.53;;
26036;SDS011;13810;48.376;10.944;2023-08-21T00:39:23;7.45;;;4.95;;
26036;SDS011;13810;48.376;10.944;2023-08-21T00:39:54;8.25;;;6.07;;
26036;SDS011;13810;48.376;10.944;2023-08-21T00:40:25;8.38;;;5.80;;
26036;SDS011;13810;48.376;10.944;2023-08-21T00:40:55;9.15;;;5.75;;
26036;SDS011;13810;48.376;10.944;2023-08-21T00:41:27;8.95;;;6.07;;
26036;SDS011;13810;48.376;10.944;2023-08-21T00:41:58;7.47;;;5.57;;
26036;SDS011;13810;48.376;10.944;2023-08-21T00:42:28;6.68;;;5.25;;
26036;SDS011;13810;48.376;10.944;2023-08-21T00:42:59;8.15;;;5.70;;
26036;SDS011;13810;48.376;10.944;2023-08-21T00:43:30;6.35;;;5.15;;
26036;SDS011;13810;48.376;10.944;2023-08-21T00:44:00;8.73;;;5.43;;
26036;SDS011;13810;48.376;10.944;2023-08-21T00:44:31;9.20;;;5.07;;
26036;SDS011;13810;48.376;10.944;2023-08-21T00:45:02;7.53;;;5.53;;
26036;SDS011;13810;48.376;10.944;2023-08-21T00:45:33;7.43;;;5.05;;
26036;SDS011;13810;48.376;10.944;2023-08-21T00:46:04;7.72;;;5.25;;
26036;SDS011;13810;48.376;10.944;2023-08-21T00:46:35;6.63;;;5.00;;
26036;SDS011;13810;48.376;10.944;2023-08-21T00:47:06;8.95;;;5.45;;
26036;SDS011;13810;48.376;10.944;2023-08-21T00:47:37;7.72;;;6.07;;
26036;SDS011;13810;48.376;10.944;2023-08-21T00:48:09;8.45;;;5.32;;
26036;SDS011;13810;48.376;10.944;2023-08-21T00:48:41;10.48;;;6.03;;
26036;SDS011;13810;48.376;10.944;2023-08-21T00:49:13;8.57;;;5.60;;
26036;SDS011;13810;48.376;10.944;2023-08-21T00:49:43;10.70;;;5.35;;
26036;SDS011;13810;48.376;10.944;2023-08-21T00:50:14;6.10;;;5.35;;
26036;SDS011;13810;48.376;10.944;2023-08-21T00:50:45;8.35;;;5.63;;
26036;SDS011;13810;48.376;10.944;2023-08-21T00:51:16;11.93;;;5.75;;
26036;SDS011;13810;48.376;10.944;2023-08-21T00:51:48;10.00;;;5.57;;
26036;SDS011;13810;48.376;10.944;2023-08-21T00:52:20;8.25;;;5.82;;
26036;SDS011;13810;48.376;10.944;2023-08-21T00:52:50;8.43;;;5.72;;
26036;SDS011;13810;48.376;10.944;2023-08-21T00:53:21;8.38;;;5.18;;
26036;SDS011;13810;48.376;10.944;2023-08-21T00:53:52;6.38;;;5.25;;
26036;SDS011;13810;48.376;10.944;2023-08-21T00:54:23;14.45;;;6.10;;
26036;SDS011;13810;48.376;10.944;2023-08-21T00:54:54;12.68;;;6.22;;
26036;SDS011;13810;48.376;10.944;2023-08-21T00:55:25;12.02;;;6.63;;
26036;SDS011;13810;48.376;10.944;2023-08-21T00:55:56;11.02;;;5.78;;
26036;SDS011;13810;48.376;10.944;2023-08-21T00:56:27;6.93;;;5.25;;
26036;SDS011;13810;48.376;10.944;2023-08-21T00:56:58;9.18;;;5.47;;
26036;SDS011;13810;48.376;10.944;2023-08-21T00:57:28;9.15;;;5.72;;
26036;SDS011;13810;48.376;10.944;2023-08-21T00:57:59;7.60;;;5.68;;
26036;SDS011;13810;48.376;10.944;2023-08-21T00:58:33;7.03;;;5.18;;
26036;SDS011;13810;48.376;10.944;2023-08-21T00:59:04;9.40;;;6.13;;
26036;SDS011;13810;48.376;10.944;2023-08-21T00:59:34;8.77;;;5.38;;
26036;SDS011;13810;48.376;10.944;2023-08-21T01:00:06;10.23;;;5.78;;
26036;SDS011;13810;48.376;10.944;2023-08-21T01:00:41;11.80;;;6.00;;
26036;SDS011;13810;48.376;10.944;2023-08-21T01:01:13;7.15;;;5.57;;
26036;SDS011;13810;48.376;10.944;2023-08-21T01:01:46;8.13;;;6.32;;
26036;SDS011;13810;48.376;10.944;2023-08-21T01:02:17;9.13;;;5.68;;
26036;SDS011;13810;48.376;10.944;2023-08-21T01:02:49;9.43;;;5.78;;
26036;SDS011;13810;48.376;10.944;2023-08-21T01:03:19;9.48;;;5.38;;
26036;SDS011;13810;48.376;10.944;2023-08-21T01:03:50;8.88;;;5.90;;
26036;SDS011;13810;48.376;10.944;2023-08-21T01:04:21;6.55;;;4.40;;
26036;SDS011;13810;48.376;10.944;2023-08-21T01:04:52;7.30;;;5.10;;
26036;SDS011;13810;48.376;10.944;2023-08-21T01:05:23;9.02;;;6.07;;
26036;SDS011;13810;48.376;10.944;2023-08-21T01:05:54;9.27;;;5.65;;
26036;SDS011;13810;48.376;10.944;2023-08-21T01:06:25;9.63;;;5.72;;
26036;SDS011;13810;48.376;10.944;2023-08-21T01:06:56;8.20;;;5.10;;
26036;SDS011;13810;48.376;10.944;2023-08-21T01:07:27;7.15;;;5.20;;
26036;SDS011;13810;48.376;10.944;2023-08-21T01:08:02;8.20;;;5.15;;
26036;SDS011;13810;48.376;10.944;2023-08-21T01:09:25;8.73;;;5.97;;
26036;SDS011;13810;48.376;10.944;2023-08-21T01:10:02;9.95;;;5.53;;
26036;SDS011;13810;48.376;10.944;2023-08-21T01:14:31;8.98;;;6.15;;
26036;SDS011;13810;48.376;10.944;2023-08-21T01:15:09;6.85;;;5.22;;
26036;SDS011;13810;48.376;10.944;2023-08-21T01:15:40;9.00;;;6.00;;
26036;SDS011;13810;48.376;10.944;2023-08-21T01:16:12;7.20;;;6.13;;
26036;SDS011;13810;48.376;10.944;2023-08-21T01:16:44;11.90;;;6.55;;
26036;SDS011;13810;48.376;10.944;2023-08-21T01:17:17;9.75;;;6.15;;
26036;SDS011;13810;48.376;10.944;2023-08-21T01:17:49;8.63;;;5.97;;
26036;SDS011;13810;48.376;10.944;2023-08-21T01:18:21;13.27;;;6.50;;
26036;SDS011;13810;48.376;10.944;2023-08-21T01:18:53;8.68;;;6.38;;
26036;SDS011;13810;48.376;10.944;2023-08-21T01:19:31;13.52;;;6.35;;
26036;SDS011;13810;48.376;10.944;2023-08-21T01:20:07;7.55;;;5.38;;
26036;SDS011;13810;48.376;10.944;2023-08-21T01:20:41;8.63;;;5.95;;
26036;SDS011;13810;48.376;10.944;2023-08-21T01:21:12;10.43;;;5.97;;
26036;SDS011;13810;48.376;10.944;2023-08-21T01:21:43;9.73;;;6.38;;
26036;SDS011;13810;48.376;10.944;2023-08-21T01:22:14;10.52;;;6.47;;
26036;SDS011;13810;48.376;10.944;2023-08-21T01:22:45;7.18;;;5.32;;
26036;SDS011;13810;48.376;10.944;2023-08-21T01:24:04;11.88;;;6.15;;
26036;SDS011;13810;48.376;10.944;2023-08-21T01:24:35;9.05;;;5.72;;
26036;SDS011;13810;48.376;10.944;2023-08-21T01:25:06;9.45;;;6.20;;
26036;SDS011;13810;48.376;10.944;2023-08-21T01:25:38;13.73;;;6.78;;
26036;SDS011;13810;48.376;10.944;2023-08-21T01:26:09;11.95;;;7.55;;
26036;SDS011;13810;48.376;10.944;2023-08-21T01:26:39;10.75;;;6.80;;
26036;SDS011;13810;48.376;10.944;2023-08-21T01:27:10;9.25;;;7.20;;
26036;SDS011;13810;48.376;10.944;2023-08-21T01:27:47;11.57;;;7.22;;
26036;SDS011;13810;48.376;10.944;2023-08-21T01:28:19;9.68;;;7.03;;
26036;SDS011;13810;48.376;10.944;2023-08-21T01:28:50;8.95;;;6.85;;
26036;SDS011;13810;48.376;10.944;2023-08-21T01:29:21;10.10;;;7.30;;
26036;SDS011;13810;48.376;10.944;2023-08-21T01:29:52;11.93;;;7.82;;
26036;SDS011;13810;48.376;10.944;2023-08-21T01:30:23;13.52;;;6.80;;
26036;SDS011;13810;48.376;10.944;2023-08-21T01:31:00;12.35;;;6.28;;
26036;SDS011;13810;48.376;10.944;2023-08-21T01:31:58;9.75;;;7.30;;
26036;SDS011;13810;48.376;10.944;2023-08-21T01:32:48;9.30;;;6.55;;
26036;SDS011;13810;48.376;10.944;2023-08-21T01:33:26;9.68;;;6.57;;
26036;SDS011;13810;48.376;10.944;2023-08-21T01:34:01;10.27;;;6.53;;
26036;SDS011;13810;48.376;10.944;2023-08-21T01:34:37;12.55;;;7.60;;
26036;SDS011;13810;48.376;10.944;2023-08-21T01:35:09;14.23;;;7.25;;
26036;SDS011;13810;48.376;10.944;2023-08-21T01:35:41;10.45;;;6.80;;
26036;SDS011;13810;48.376;10.944;2023-08-21T01:36:13;12.32;;;7.57;;
26036;SDS011;13810;48.376;10.944;2023-08-21T01:36:45;12.60;;;7.25;;
26036;SDS011;13810;48.376;10.944;2023-08-21T01:37:16;10.07;;;6.72;;
26036;SDS011;13810;48.376;10.944;2023-08-21T01:37:47;12.68;;;7.18;;
26036;SDS011;13810;48.376;10.944;2023-08-21T01:38:19;10.32;;;7.32;;
26036;SDS011;13810;48.376;10.944;2023-08-21T01:38:49;12.88;;;7.32;;
26036;SDS011;13810;48.376;10.944;2023-08-21T01:39:20;10.98;;;7.32;;
26036;SDS011;13810;48.376;10.944;2023-08-21T01:39:51;8.82;;;6.35;;
26036;SDS011;13810;48.376;10.944;2023-08-21T01:40:23;9.90;;;6.50;;
26036;SDS011;13810;48.376;10.944;2023-08-21T01:40:54;10.68;;;7.05;;
26036;SDS011;13810;48.376;10.944;2023-08-21T01:41:25;10.55;;;7.40;;
26036;SDS011;13810;48.376;10.944;2023-08-21T01:41:56;9.63;;;6.65;;
26036;SDS011;13810;48.376;10.944;2023-08-21T01:42:28;15.80;;;7.15;;
26036;SDS011;13810;48.376;10.944;2023-08-21T01:42:58;12.18;;;7.22;;
26036;SDS011;13810;48.376;10.944;2023-08-21T01:43:29;8.57;;;5.35;;
26036;SDS011;13810;48.376;10.944;2023-08-21T01:44:00;13.20;;;7.28;;
26036;SDS011;13810;48.376;10.944;2023-08-21T01:44:30;12.38;;;7.93;;
26036;SDS011;13810;48.376;10.944;2023-08-21T01:45:01;9.43;;;6.68;;
26036;SDS011;13810;48.376;10.944;2023-08-21T01:45:32;11.57;;;6.70;;
26036;SDS011;13810;48.376;10.944;2023-08-21T01:46:02;9.77;;;6.45;;
26036;SDS011;13810;48.376;10.944;2023-08-21T01:46:33;11.30;;;7.15;;
26036;SDS011;13810;48.376;10.944;2023-08-21T01:47:04;12.38;;;6.72;;
26036;SDS011;13810;48.376;10.944;2023-08-21T01:47:35;15.13;;;6.93;;
26036;SDS011;13810;48.376;10.944;2023-08-21T01:48:05;11.68;;;7.60;;
26036;SDS011;13810;48.376;10.944;2023-08-21T01:48:36;11.57;;;7.38;;
26036;SDS011;13810;48.376;10.944;2023-08-21T01:49:07;11.07;;;7.28;;
26036;SDS011;13810;48.376;10.944;2023-08-21T01:49:38;11.57;;;6.28;;
26036;SDS011;13810;48.376;10.944;2023-08-21T01:50:08;9.63;;;6.03;;
26036;SDS011;13810;48.376;10.944;2023-08-21T01:50:39;10.32;;;6.53;;
26036;SDS011;13810;48.376;10.944;2023-08-21T01:51:10;12.82;;;6.97;;
26036;SDS011;13810;48.376;10.944;2023-08-21T01:51:40;11.52;;;6.85;;
26036;SDS011;13810;48.376;10.944;2023-08-21T01:52:11;11.93;;;6.13;;
26036;SDS011;13810;48.376;10.944;2023-08-21T01:52:41;9.68;;;6.95;;
26036;SDS011;13810;48.376;10.944;2023-08-21T01:53:12;10.95;;;6.65;;
26036;SDS011;13810;48.376;10.944;2023-08-21T01:53:43;9.60;;;6.55;;
26036;SDS011;13810;48.376;10.944;2023-08-21T01:54:13;10.73;;;6.60;;
26036;SDS011;13810;48.376;10.944;2023-08-21T01:54:44;9.15;;;6.57;;
26036;SDS011;13810;48.376;10.944;2023-08-21T01:55:18;10.70;;;6.80;;
26036;SDS011;13810;48.376;10.944;2023-08-21T01:55:48;10.32;;;6.95;;
26036;SDS011;13810;48.376;10.944;2023-08-21T01:56:19;10.20;;;6.65;;
26036;SDS011;13810;48.376;10.944;2023-08-21T01:56:49;12.63;;;6.35;;
26036;SDS011;13810;48.376;10.944;2023-08-21T01:57:20;10.68;;;6.22;;
26036;SDS011;13810;48.376;10.944;2023-08-21T01:57:51;11.25;;;6.53;;
26036;SDS011;13810;48.376;10.944;2023-08-21T01:58:21;11.25;;;7.40;;
26036;SDS011;13810;48.376;10.944;2023-08-21T01:58:52;14.52;;;7.25;;
26036;SDS011;13810;48.376;10.944;2023-08-21T01:59:23;12.55;;;7.43;;
26036;SDS011;13810;48.376;10.944;2023-08-21T01:59:54;9.57;;;6.95;;
26036;SDS011;13810;48.376;10.944;2023-08-21T02:00:25;12.02;;;6.85;;
26036;SDS011;13810;48.376;10.944;2023-08-21T02:00:55;13.10;;;6.43;;
26036;SDS011;13810;48.376;10.944;2023-08-21T02:01:26;15.43;;;7.15;;
26036;SDS011;13810;48.376;10.944;2023-08-21T02:01:57;10.60;;;7.00;;
26036;SDS011;13810;48.376;10.944;2023-08-21T02:02:27;9.73;;;6.75;;
26036;SDS011;13810;48.376;10.944;2023-08-21T02:02:58;13.35;;;6.85;;
26036;SDS011;13810;48.376;10.944;2023-08-21T02:03:29;10.77;;;6.20;;
26036;SDS011;13810;48.376;10.944;2023-08-21T02:04:00;8.88;;;6.30;;
26036;SDS011;13810;48.376;10.944;2023-08-21T02:04:31;12.07;;;6.53;;
26036;SDS011;13810;48.376;10.944;2023-08-21T02:05:02;11.85;;;7.38;;
26036;SDS011;13810;48.376;10.944;2023-08-21T02:05:37;11.75;;;7.60;;
26036;SDS011;13810;48.376;10.944;2023-08-21T02:06:10;10.98;;;6.93;;
26036;SDS011;13810;48.376;10.944;2023-08-21T02:06:41;15.52;;;7.50;;
26036;SDS011;13810;48.376;10.944;2023-08-21T02:07:14;12.50;;;7.13;;
26036;SDS011;13810;48.376;10.944;2023-08-21T02:07:44;10.68;;;6.78;;
26036;SDS011;13810;48.376;10.944;2023-08-21T02:08:16;13.00;;;7.45;;
26036;SDS011;13810;48.376;10.944;2023-08-21T02:08:48;10.88;;;6.70;;
26036;SDS011;13810;48.376;10.944;2023-08-21T02:09:19;11.55;;;7.38;;
26036;SDS011;13810;48.376;10.944;2023-08-21T02:09:50;13.65;;;7.47;;
26036;SDS011;13810;48.376;10.944;2023-08-21T02:10:20;9.70;;;6.90;;
26036;SDS011;13810;48.376;10.944;2023-08-21T02:10:51;10.63;;;7.20;;
26036;SDS011;13810;48.376;10.944;2023-08-21T02:11:22;11.10;;;7.65;;
26036;SDS011;13810;48.376;10.944;2023-08-21T02:11:53;11.05;;;7.53;;
26036;SDS011;13810;48.376;10.944;2023-08-21T02:12:23;12.38;;;6.65;;
26036;SDS011;13810;48.376;10.944;2023-08-21T02:12:55;11.57;;;7.15;;
26036;SDS011;13810;48.376;10.944;2023-08-21T02:13:26;11.88;;;7.38;;
26036;SDS011;13810;48.376;10.944;2023-08-21T02:13:57;11.55;;;7.35;;
26036;SDS011;13810;48.376;10.944;2023-08-21T02:14:28;13.38;;;7.70;;
26036;SDS011;13810;48.376;10.944;2023-08-21T02:14:58;12.38;;;7.35;;
26036;SDS011;13810;48.376;10.944;2023-08-21T02:15:29;9.40;;;6.50;;
26036;SDS011;13810;48.376;10.944;2023-08-21T02:15:59;10.52;;;6.80;;
26036;SDS011;13810;48.376;10.944;2023-08-21T02:16:30;9.50;;;6.25;;
26036;SDS011;13810;48.376;10.944;2023-08-21T02:17:02;9.73;;;6.38;;
26036;SDS011;13810;48.376;10.944;2023-08-21T02:17:32;13.07;;;6.95;;
26036;SDS011;13810;48.376;10.944;2023-08-21T02:18:03;10.00;;;6.40;;
26036;SDS011;13810;48.376;10.944;2023-08-21T02:18:34;10.02;;;6.95;;
26036;SDS011;13810;48.376;10.944;2023-08-21T02:19:05;11.00;;;7.13;;
26036;SDS011;13810;48.376;10.944;2023-08-21T02:19:35;9.15;;;6.43;;
26036;SDS011;13810;48.376;10.944;2023-08-21T02:20:06;10.40;;;5.90;;
26036;SDS011;13810;48.376;10.944;2023-08-21T02:20:37;7.05;;;5.30;;
26036;SDS011;13810;48.376;10.944;2023-08-21T02:21:08;13.40;;;6.85;;
26036;SDS011;13810;48.376;10.944;2023-08-21T02:21:38;7.70;;;5.70;;
26036;SDS011;13810;48.376;10.944;2023-08-21T02:22:09;9.13;;;6.07;;
26036;SDS011;13810;48.376;10.944;2023-08-21T02:22:40;9.10;;;5.15;;
26036;SDS011;13810;48.376;10.944;2023-08-21T02:23:10;10.38;;;6.38;;
26036;SDS011;13810;48.376;10.944;2023-08-21T02:23:41;11.13;;;6.45;;
26036;SDS011;13810;48.376;10.944;2023-08-21T02:24:12;10.88;;;5.35;;
26036;SDS011;13810;48.376;10.944;2023-08-21T02:24:42;8.52;;;5.63;;
26036;SDS011;13810;48.376;10.944;2023-08-21T02:25:13;8.20;;;5.72;;
26036;SDS011;13810;48.376;10.944;2023-08-21T02:25:44;10.57;;;6.75;;
26036;SDS011;13810;48.376;10.944;2023-08-21T02:26:14;9.52;;;6.47;;
26036;SDS011;13810;48.376;10.944;2023-08-21T02:26:46;9.23;;;6.75;;
26036;SDS011;13810;48.376;10.944;2023-08-21T02:27:17;12.32;;;6.65;;
26036;SDS011;13810;48.376;10.944;2023-08-21T02:27:47;10.00;;;5.82;;
26036;SDS011;13810;48.376;10.944;2023-08-21T02:28:18;10.85;;;7.22;;
26036;SDS011;13810;48.376;10.944;2023-08-21T02:28:49;9.90;;;6.47;;
26036;SDS011;13810;48.376;10.944;2023-08-21T02:29:19;9.98;;;6.88;;
26036;SDS011;13810;48.376;10.944;2023-08-21T02:29:50;9.18;;;6.00;;
26036;SDS011;13810;48.376;10.944;2023-08-21T02:30:21;9.15;;;6.30;;
26036;SDS011;13810;48.376;10.944;2023-08-21T02:30:55;10.10;;;6.28;;
26036;SDS011;13810;48.376;10.944;2023-08-21T02:31:25;9.98;;;6.43;;
26036;SDS011;13810;48.376;10.944;2023-08-21T02:31:56;9.60;;;6.57;;
26036;SDS011;13810;48.376;10.944;2023-08-21T02:32:27;9.90;;;6.45;;
26036;SDS011;13810;48.376;10.944;2023-08-21T02:32:57;9.73;;;6.78;;
26036;SDS011;13810;48.376;10.944;2023-08-21T02:33:28;12.27;;;6.68;;
26036;SDS011;13810;48.376;10.944;2023-08-21T02:33:59;12.10;;;7.28;;
26036;SDS011;13810;48.376;10.944;2023-08-21T02:34:30;9.00;;;6.25;;
26036;SDS011;13810;48.376;10.944;2023-08-21T02:35:00;11.13;;;6.82;;
26036;SDS011;13810;48.376;10.944;2023-08-21T02:35:31;16.45;;;8.18;;
26036;SDS011;13810;48.376;10.944;2023-08-21T02:36:02;10.88;;;6.70;;
26036;SDS011;13810;48.376;10.944;2023-08-21T02:36:33;9.23;;;6.13;;
26036;SDS011;13810;48.376;10.944;2023-08-21T02:37:04;9.85;;;6.47;;
26036;SDS011;13810;48.376;10.944;2023-08-21T02:37:35;13.00;;;7.03;;
26036;SDS011;13810;48.376;10.944;2023-08-21T02:38:09;11.05;;;7.22;;
26036;SDS011;13810;48.376;10.944;2023-08-21T02:38:39;11.57;;;7.40;;
26036;SDS011;13810;48.376;10.944;2023-08-21T02:39:10;12.32;;;7.72;;
26036;SDS011;13810;48.376;10.944;2023-08-21T02:39:41;11.95;;;7.20;;
26036;SDS011;13810;48.376;10.944;2023-08-21T02:40:11;13.38;;;7.88;;
26036;SDS011;13810;48.376;10.944;2023-08-21T02:40:42;11.13;;;6.63;;
26036;SDS011;13810;48.376;10.944;2023-08-21T02:41:13;10.07;;;6.22;;
26036;SDS011;13810;48.376;10.944;2023-08-21T02:41:43;11.50;;;7.30;;
26036;SDS011;13810;48.376;10.944;2023-08-21T02:42:14;10.43;;;7.07;;
26036;SDS011;13810;48.376;10.944;2023-08-21T02:42:44;12.80;;;7.68;;
26036;SDS011;13810;48.376;10.944;2023-08-21T02:43:15;10.65;;;7.10;;
26036;SDS011;13810;48.376;10.944;2023-08-21T02:43:46;12.88;;;7.68;;
26036;SDS011;13810;48.376;10.944;2023-08-21T02:44:17;9.07;;;6.97;;
26036;SDS011;13810;48.376;10.944;2023-08-21T02:44:48;11.23;;;6.70;;
26036;SDS011;13810;48.376;10.944;2023-08-21T02:45:18;13.25;;;6.97;;
26036;SDS011;13810;48.376;10.944;2023-08-21T02:45:49;10.25;;;6.45;;
26036;SDS011;13810;48.376;10.944;2023-08-21T02:46:20;9.65;;;6.38;;
26036;SDS011;13810;48.376;10.944;2023-08-21T02:46:50;13.35;;;7.00;;
26036;SDS011;13810;48.376;10.944;2023-08-21T02:47:21;9.40;;;6.13;;
26036;SDS011;13810;48.376;10.944;2023-08-21T02:47:52;9.60;;;6.25;;
26036;SDS011;13810;48.376;10.944;2023-08-21T02:48:22;10.52;;;7.47;;
26036;SDS011;13810;48.376;10.944;2023-08-21T02:48:53;10.23;;;6.47;;
26036;SDS011;13810;48.376;10.944;2023-08-21T02:49:23;13.52;;;7.43;;
26036;SDS011;13810;48.376;10.944;2023-08-21T02:49:54;9.63;;;6.10;;
26036;SDS011;13810;48.376;10.944;2023-08-21T02:50:25;11.65;;;6.60;;
26036;SDS011;13810;48.376;10.944;2023-08-21T02:50:55;12.48;;;6.65;;
26036;SDS011;13810;48.376;10.944;2023-08-21T02:51:26;13.15;;;6.90;;
26036;SDS011;13810;48.376;10.944;2023-08-21T02:51:56;9.02;;;5.75;;
26036;SDS011;13810;48.376;10.944;2023-08-21T02:52:27;8.68;;;6.30;;
26036;SDS011;13810;48.376;10.944;2023-08-21T02:52:58;13.55;;;6.47;;
26036;SDS011;13810;48.376;10.944;2023-08-21T02:53:28;10.25;;;6.47;;
26036;SDS011;13810;48.376;10.944;2023-08-21T02:53:59;7.47;;;6.30;;
26036;SDS011;13810;48.376;10.944;2023-08-21T02:54:30;15.23;;;8.02;;
26036;SDS011;13810;48.376;10.944;2023-08-21T02:55:01;13.07;;;6.82;;
26036;SDS011;13810;48.376;10.944;2023-08-21T02:55:32;12.98;;;6.38;;
26036;SDS011;13810;48.376;10.944;2023-08-21T02:56:04;7.95;;;5.72;;
26036;SDS011;13810;48.376;10.944;2023-08-21T02:56:34;9.77;;;6.35;;
26036;SDS011;13810;48.376;10.944;2023-08-21T02:57:05;9.93;;;5.95;;
26036;SDS011;13810;48.376;10.944;2023-08-21T02:57:35;10.80;;;6.63;;
26036;SDS011;13810;48.376;10.944;2023-08-21T02:58:06;8.55;;;6.10;;
26036;SDS011;13810;48.376;10.944;2023-08-21T02:58:37;10.13;;;6.45;;
26036;SDS011;13810;48.376;10.944;2023-08-21T02:59:07;8.50;;;6.00;;
26036;SDS011;13810;48.376;10.944;2023-08-21T02:59:38;13.75;;;6.72;;
26036;SDS011;13810;48.376;10.944;2023-08-21T03:00:09;11.80;;;6.85;;
26036;SDS011;13810;48.376;10.944;2023-08-21T03:00:40;10.07;;;6.50;;
26036;SDS011;13810;48.376;10.944;2023-08-21T03:01:11;10.52;;;6.78;;
26036;SDS011;13810;48.376;10.944;2023-08-21T03:01:42;10.60;;;6.35;;
26036;SDS011;13810;48.376;10.944;2023-08-21T03:02:12;10.13;;;6.25;;
26036;SDS011;13810;48.376;10.944;2023-08-21T03:02:43;12.00;;;7.10;;
26036;SDS011;13810;48.376;10.944;2023-08-21T03:03:14;9.60;;;6.60;;
26036;SDS011;13810;48.376;10.944;2023-08-21T03:03:44;9.38;;;6.07;;
26036;SDS011;13810;48.376;10.944;2023-08-21T03:04:15;7.90;;;5.45;;
26036;SDS011;13810;48.376;10.944;2023-08-21T03:04:46;7.20;;;5.28;;
26036;SDS011;13810;48.376;10.944;2023-08-21T03:05:17;8.18;;;6.53;;
26036;SDS011;13810;48.376;10.944;2023-08-21T03:05:47;10.50;;;7.03;;
26036;SDS011;13810;48.376;10.944;2023-08-21T03:06:18;9.85;;;5.72;;
26036;SDS011;13810;48.376;10.944;2023-08-21T03:06:49;15.02;;;7.40;;
26036;SDS011;13810;48.376;10.944;2023-08-21T03:07:19;12.73;;;7.07;;
26036;SDS011;13810;48.376;10.944;2023-08-21T03:07:50;12.85;;;6.95;;
26036;SDS011;13810;48.376;10.944;2023-08-21T03:08:21;10.23;;;5.97;;
26036;SDS011;13810;48.376;10.944;2023-08-21T03:08:51;10.48;;;6.70;;
26036;SDS011;13810;48.376;10.944;2023-08-21T03:09:22;8.27;;;5.80;;
26036;SDS011;13810;48.376;10.944;2023-08-21T03:09:52;12.25;;;6.32;;